sensor_id;sensor_type;location;lat;lon;timestamp;temperature;humidity
9383;DHT22;4731;49.708;10.816;2023-02-01T00:00:25;3.70;99.90
9383;DHT22;4731;49.708;10.816;2023-02-01T00:02:51;3.60;99.90
9383;DHT22;4731;49.708;10.816;2023-02-01T00:05:18;3.60;99.90
9383;DHT22;4731;49.708;10.816;2023-02-01T00:07:47;3.70;99.90
9383;DHT22;4731;49.708;10.816;2023-02-01T00:10:14;3.70;99.90
9383;DHT22;4731;49.708;10.816;2023-02-01T00:12:41;3.80;99.90
9383;DHT22;4731;49.708;10.816;2023-02-01T00:15:09;3.70;99.90
9383;DHT22;4731;49.708;10.816;2023-02-01T00:17:36;3.70;99.90
9383;DHT22;4731;49.708;10.816;2023-02-01T00:20:03;4.00;99.90
9383;DHT22;4731;49.708;10.816;2023-02-01T00:22:30;3.70;99.90
9383;DHT22;4731;49.708;10.816;2023-02-01T00:24:57;3.80;99.90
9383;DHT22;4731;49.708;10.816;2023-02-01T00:29:50;3.90;99.90
9383;DHT22;4731;49.708;10.816;2023-02-01T00:32:18;3.90;99.90
9383;DHT22;4731;49.708;10.816;2023-02-01T00:34:45;3.90;99.90
9383;DHT22;4731;49.708;10.816;2023-02-01T00:37:12;4.00;99.90
9383;DHT22;4731;49.708;10.816;2023-02-01T00:39:38;4.00;99.90
9383;DHT22;4731;49.708;10.816;2023-02-01T00:42:05;4.00;99.90
9383;DHT22;4731;49.708;10.816;2023-02-01T00:44:32;3.90;99.90
9383;DHT22;4731;49.708;10.816;2023-02-01T00:47:00;3.90;99.90
9383;DHT22;4731;49.708;10.816;2023-02-01T00:49:29;3.90;99.90
9383;DHT22;4731;49.708;10.816;2023-02-01T00:51:55;3.90;99.90
9383;DHT22;4731;49.708;10.816;2023-02-01T00:54:22;3.90;99.90
9383;DHT22;4731;49.708;10.816;2023-02-01T00:56:49;4.00;99.90
9383;DHT22;4731;49.708;10.816;2023-02-01T00:59:16;4.00;99.90
9383;DHT22;4731;49.708;10.816;2023-02-01T01:01:42;4.00;99.90
9383;DHT22;4731;49.708;10.816;2023-02-01T01:04:09;4.00;99.90
9383;DHT22;4731;49.708;10.816;2023-02-01T01:06:37;4.00;99.90
9383;DHT22;4731;49.708;10.816;2023-02-01T01:09:05;4.00;99.90
9383;DHT22;4731;49.708;10.816;2023-02-01T01:11:34;4.00;99.90
9383;DHT22;4731;49.708;10.816;2023-02-01T01:14:01;4.00;99.90
9383;DHT22;4731;49.708;10.816;2023-02-01T01:16:30;4.00;99.90
9383;DHT22;4731;49.708;10.816;2023-02-01T01:18:57;4.80;99.90
9383;DHT22;4731;49.708;10.816;2023-02-01T01:21:25;4.00;99.90
9383;DHT22;4731;49.708;10.816;2023-02-01T01:23:53;4.00;99.90
9383;DHT22;4731;49.708;10.816;2023-02-01T01:26:22;4.00;99.90
9383;DHT22;4731;49.708;10.816;2023-02-01T01:28:50;4.00;99.90
9383;DHT22;4731;49.708;10.816;2023-02-01T01:31:18;4.00;99.90
9383;DHT22;4731;49.708;10.816;2023-02-01T01:33:48;4.00;99.90
9383;DHT22;4731;49.708;10.816;2023-02-01T01:36:15;4.10;99.90
9383;DHT22;4731;49.708;10.816;2023-02-01T01:38:42;6.30;99.90
9383;DHT22;4731;49.708;10.816;2023-02-01T01:41:14;4.10;99.90
9383;DHT22;4731;49.708;10.816;2023-02-01T01:43:51;4.00;99.90
9383;DHT22;4731;49.708;10.816;2023-02-01T01:46:19;4.00;99.90
9383;DHT22;4731;49.708;10.816;2023-02-01T01:48:48;4.00;99.90
9383;DHT22;4731;49.708;10.816;2023-02-01T01:51:18;4.00;99.90
9383;DHT22;4731;49.708;10.816;2023-02-01T01:53:50;4.10;99.90
9383;DHT22;4731;49.708;10.816;2023-02-01T01:56:21;4.00;99.90
9383;DHT22;4731;49.708;10.816;2023-02-01T01:58:48;4.10;99.90
9383;DHT22;4731;49.708;10.816;2023-02-01T02:01:15;4.10;99.90
9383;DHT22;4731;49.708;10.816;2023-02-01T02:03:43;4.10;99.90
9383;DHT22;4731;49.708;10.816;2023-02-01T02:06:16;4.00;99.90
9383;DHT22;4731;49.708;10.816;2023-02-01T02:08:46;4.10;99.90
9383;DHT22;4731;49.708;10.816;2023-02-01T02:11:16;4.10;99.90
9383;DHT22;4731;49.708;10.816;2023-02-01T02:13:48;4.10;99.90
9383;DHT22;4731;49.708;10.816;2023-02-01T02:16:32;4.10;99.90
9383;DHT22;4731;49.708;10.816;2023-02-01T02:22:35;4.10;99.90
9383;DHT22;4731;49.708;10.816;2023-02-01T02:25:49;4.10;99.90
9383;DHT22;4731;49.708;10.816;2023-02-01T02:28:41;4.10;99.90
9383;DHT22;4731;49.708;10.816;2023-02-01T02:31:27;4.10;99.90
9383;DHT22;4731;49.708;10.816;2023-02-01T02:34:09;4.00;99.90
9383;DHT22;4731;49.708;10.816;2023-02-01T02:36:50;4.10;99.90
9383;DHT22;4731;49.708;10.816;2023-02-01T02:39:24;4.10;99.90
9383;DHT22;4731;49.708;10.816;2023-02-01T02:42:01;4.10;99.90
9383;DHT22;4731;49.708;10.816;2023-02-01T02:44:56;4.10;99.90
9383;DHT22;4731;49.708;10.816;2023-02-01T02:47:44;4.20;99.90
9383;DHT22;4731;49.708;10.816;2023-02-01T02:50:18;4.20;99.90
9383;DHT22;4731;49.708;10.816;2023-02-01T02:53:07;4.10;99.90
9383;DHT22;4731;49.708;10.816;2023-02-01T02:55:55;4.20;99.90
9383;DHT22;4731;49.708;10.816;2023-02-01T02:58:40;4.10;99.90
9383;DHT22;4731;49.708;10.816;2023-02-01T03:01:26;4.00;99.90
9383;DHT22;4731;49.708;10.816;2023-02-01T03:04:10;4.00;99.90
9383;DHT22;4731;49.708;10.816;2023-02-01T03:06:44;4.00;99.90
9383;DHT22;4731;49.708;10.816;2023-02-01T03:09:16;4.00;99.90
9383;DHT22;4731;49.708;10.816;2023-02-01T03:11:44;4.00;99.90
9383;DHT22;4731;49.708;10.816;2023-02-01T03:14:30;4.00;99.90
9383;DHT22;4731;49.708;10.816;2023-02-01T03:17:01;4.00;99.90
9383;DHT22;4731;49.708;10.816;2023-02-01T03:19:33;4.00;99.90
9383;DHT22;4731;49.708;10.816;2023-02-01T03:22:04;4.10;99.90
9383;DHT22;4731;49.708;10.816;2023-02-01T03:24:34;4.00;99.90
9383;DHT22;4731;49.708;10.816;2023-02-01T03:27:19;4.00;99.90
9383;DHT22;4731;49.708;10.816;2023-02-01T03:29:49;4.90;99.90
9383;DHT22;4731;49.708;10.816;2023-02-01T03:32:17;4.00;99.90
9383;DHT22;4731;49.708;10.816;2023-02-01T03:34:45;3.90;99.90
9383;DHT22;4731;49.708;10.816;2023-02-01T03:37:17;4.00;99.90
9383;DHT22;4731;49.708;10.816;2023-02-01T03:39:53;4.00;99.90
9383;DHT22;4731;49.708;10.816;2023-02-01T03:42:27;4.10;99.90
9383;DHT22;4731;49.708;10.816;2023-02-01T03:44:59;4.20;99.90
9383;DHT22;4731;49.708;10.816;2023-02-01T03:47:30;4.10;99.90
9383;DHT22;4731;49.708;10.816;2023-02-01T03:50:00;7.90;99.90
9383;DHT22;4731;49.708;10.816;2023-02-01T03:52:32;4.10;99.90
9383;DHT22;4731;49.708;10.816;2023-02-01T03:55:01;4.10;99.90
9383;DHT22;4731;49.708;10.816;2023-02-01T03:57:32;4.20;99.90
9383;DHT22;4731;49.708;10.816;2023-02-01T04:00:05;4.00;99.90
9383;DHT22;4731;49.708;10.816;2023-02-01T04:02:33;4.00;99.90
9383;DHT22;4731;49.708;10.816;2023-02-01T04:05:00;3.90;99.90
9383;DHT22;4731;49.708;10.816;2023-02-01T04:07:26;3.90;99.90
9383;DHT22;4731;49.708;10.816;2023-02-01T04:09:54;3.90;99.90
9383;DHT22;4731;49.708;10.816;2023-02-01T04:12:21;3.80;99.90
9383;DHT22;4731;49.708;10.816;2023-02-01T04:14:48;3.90;99.90
9383;DHT22;4731;49.708;10.816;2023-02-01T04:17:14;4.00;99.90
9383;DHT22;4731;49.708;10.816;2023-02-01T04:19:41;4.00;99.90
9383;DHT22;4731;49.708;10.816;2023-02-01T04:22:08;3.90;99.90
9383;DHT22;4731;49.708;10.816;2023-02-01T04:24:34;3.80;99.90
9383;DHT22;4731;49.708;10.816;2023-02-01T04:27:03;3.90;99.90
9383;DHT22;4731;49.708;10.816;2023-02-01T04:29:31;3.90;99.90
9383;DHT22;4731;49.708;10.816;2023-02-01T04:32:02;3.90;99.90
9383;DHT22;4731;49.708;10.816;2023-02-01T04:34:29;3.90;99.90
9383;DHT22;4731;49.708;10.816;2023-02-01T04:36:56;3.90;99.90
9383;DHT22;4731;49.708;10.816;2023-02-01T04:39:23;3.90;99.90
9383;DHT22;4731;49.708;10.816;2023-02-01T04:41:49;3.90;99.90
9383;DHT22;4731;49.708;10.816;2023-02-01T04:44:18;3.90;99.90
9383;DHT22;4731;49.708;10.816;2023-02-01T04:46:46;3.80;99.90
9383;DHT22;4731;49.708;10.816;2023-02-01T04:49:14;3.90;99.90
9383;DHT22;4731;49.708;10.816;2023-02-01T04:51:41;3.80;99.90
9383;DHT22;4731;49.708;10.816;2023-02-01T04:54:08;3.90;99.90
9383;DHT22;4731;49.708;10.816;2023-02-01T04:56:36;3.90;99.90
9383;DHT22;4731;49.708;10.816;2023-02-01T05:01:32;2.90;99.90
9383;DHT22;4731;49.708;10.816;2023-02-01T05:03:59;3.80;99.90
9383;DHT22;4731;49.708;10.816;2023-02-01T05:06:26;3.70;99.90
9383;DHT22;4731;49.708;10.816;2023-02-01T05:08:53;3.80;99.90
9383;DHT22;4731;49.708;10.816;2023-02-01T05:11:20;3.70;99.90
9383;DHT22;4731;49.708;10.816;2023-02-01T05:14:05;3.80;99.90
9383;DHT22;4731;49.708;10.816;2023-02-01T05:16:35;3.80;99.90
9383;DHT22;4731;49.708;10.816;2023-02-01T05:19:02;3.90;99.90
9383;DHT22;4731;49.708;10.816;2023-02-01T05:21:29;3.80;99.90
9383;DHT22;4731;49.708;10.816;2023-02-01T05:23:56;3.80;99.90
9383;DHT22;4731;49.708;10.816;2023-02-01T05:26:42;3.80;99.90
9383;DHT22;4731;49.708;10.816;2023-02-01T05:29:09;3.80;99.90
9383;DHT22;4731;49.708;10.816;2023-02-01T05:31:38;3.70;99.90
9383;DHT22;4731;49.708;10.816;2023-02-01T05:34:05;3.70;99.90
9383;DHT22;4731;49.708;10.816;2023-02-01T05:36:32;3.70;99.90
9383;DHT22;4731;49.708;10.816;2023-02-01T05:38:59;3.70;99.90
9383;DHT22;4731;49.708;10.816;2023-02-01T05:41:26;3.60;99.90
9383;DHT22;4731;49.708;10.816;2023-02-01T05:43:53;3.60;99.90
9383;DHT22;4731;49.708;10.816;2023-02-01T05:46:19;3.60;99.90
9383;DHT22;4731;49.708;10.816;2023-02-01T05:48:48;3.70;99.90
9383;DHT22;4731;49.708;10.816;2023-02-01T05:51:14;3.60;99.90
9383;DHT22;4731;49.708;10.816;2023-02-01T05:53:41;3.60;99.90
9383;DHT22;4731;49.708;10.816;2023-02-01T05:56:08;3.60;99.90
9383;DHT22;4731;49.708;10.816;2023-02-01T05:58:35;3.50;99.90
9383;DHT22;4731;49.708;10.816;2023-02-01T06:01:02;3.50;99.90
9383;DHT22;4731;49.708;10.816;2023-02-01T06:03:29;3.40;99.90
9383;DHT22;4731;49.708;10.816;2023-02-01T06:05:59;3.40;99.90
9383;DHT22;4731;49.708;10.816;2023-02-01T06:08:26;3.50;99.90
9383;DHT22;4731;49.708;10.816;2023-02-01T06:10:57;3.40;99.90
9383;DHT22;4731;49.708;10.816;2023-02-01T06:13:24;3.40;99.90
9383;DHT22;4731;49.708;10.816;2023-02-01T06:15:51;3.50;99.90
9383;DHT22;4731;49.708;10.816;2023-02-01T06:18:18;3.40;99.90
9383;DHT22;4731;49.708;10.816;2023-02-01T06:20:44;3.40;99.90
9383;DHT22;4731;49.708;10.816;2023-02-01T06:23:12;3.40;99.90
9383;DHT22;4731;49.708;10.816;2023-02-01T06:28:06;3.30;99.90
9383;DHT22;4731;49.708;10.816;2023-02-01T06:30:33;3.30;99.90
9383;DHT22;4731;49.708;10.816;2023-02-01T06:33:00;6.20;99.90
9383;DHT22;4731;49.708;10.816;2023-02-01T06:35:27;3.40;99.90
9383;DHT22;4731;49.708;10.816;2023-02-01T06:37:53;3.50;99.90
9383;DHT22;4731;49.708;10.816;2023-02-01T06:42:49;3.50;99.90
9383;DHT22;4731;49.708;10.816;2023-02-01T06:45:16;3.50;99.90
9383;DHT22;4731;49.708;10.816;2023-02-01T06:47:42;3.50;99.90
9383;DHT22;4731;49.708;10.816;2023-02-01T06:50:10;3.50;99.90
9383;DHT22;4731;49.708;10.816;2023-02-01T06:52:36;3.50;99.90
9383;DHT22;4731;49.708;10.816;2023-02-01T06:55:04;3.50;99.90
9383;DHT22;4731;49.708;10.816;2023-02-01T06:57:32;3.50;99.90
9383;DHT22;4731;49.708;10.816;2023-02-01T07:00:01;3.40;99.90
9383;DHT22;4731;49.708;10.816;2023-02-01T07:02:29;3.40;99.90
9383;DHT22;4731;49.708;10.816;2023-02-01T07:04:56;3.40;99.90
9383;DHT22;4731;49.708;10.816;2023-02-01T07:07:23;3.50;99.90
9383;DHT22;4731;49.708;10.816;2023-02-01T07:09:50;3.50;99.90
9383;DHT22;4731;49.708;10.816;2023-02-01T07:12:17;3.60;99.90
9383;DHT22;4731;49.708;10.816;2023-02-01T07:14:46;3.50;99.90
9383;DHT22;4731;49.708;10.816;2023-02-01T07:17:13;3.50;99.90
9383;DHT22;4731;49.708;10.816;2023-02-01T07:19:39;3.50;99.90
9383;DHT22;4731;49.708;10.816;2023-02-01T07:22:06;3.50;99.90
9383;DHT22;4731;49.708;10.816;2023-02-01T07:24:33;3.50;99.90
9383;DHT22;4731;49.708;10.816;2023-02-01T07:27:00;3.50;99.90
9383;DHT22;4731;49.708;10.816;2023-02-01T07:29:27;3.60;99.90
9383;DHT22;4731;49.708;10.816;2023-02-01T07:31:55;3.60;99.90
9383;DHT22;4731;49.708;10.816;2023-02-01T07:34:22;3.70;99.90
9383;DHT22;4731;49.708;10.816;2023-02-01T07:36:48;3.80;99.90
9383;DHT22;4731;49.708;10.816;2023-02-01T07:41:42;3.80;99.90
9383;DHT22;4731;49.708;10.816;2023-02-01T07:44:10;3.90;99.90
9383;DHT22;4731;49.708;10.816;2023-02-01T07:46:37;3.90;99.90
9383;DHT22;4731;49.708;10.816;2023-02-01T07:49:10;4.60;99.90
9383;DHT22;4731;49.708;10.816;2023-02-01T07:51:37;4.60;99.90
9383;DHT22;4731;49.708;10.816;2023-02-01T07:54:04;5.30;99.90
9383;DHT22;4731;49.708;10.816;2023-02-01T07:56:31;5.30;99.90
9383;DHT22;4731;49.708;10.816;2023-02-01T07:58:58;5.30;99.90
9383;DHT22;4731;49.708;10.816;2023-02-01T08:01:27;5.30;99.90
9383;DHT22;4731;49.708;10.816;2023-02-01T08:03:55;5.20;99.90
9383;DHT22;4731;49.708;10.816;2023-02-01T08:08:52;6.40;99.90
9383;DHT22;4731;49.708;10.816;2023-02-01T08:11:20;5.20;99.90
9383;DHT22;4731;49.708;10.816;2023-02-01T08:13:47;5.20;99.90
9383;DHT22;4731;49.708;10.816;2023-02-01T08:16:16;6.00;99.90
9383;DHT22;4731;49.708;10.816;2023-02-01T08:18:43;6.10;99.90
9383;DHT22;4731;49.708;10.816;2023-02-01T08:21:13;6.00;99.90
9383;DHT22;4731;49.708;10.816;2023-02-01T08:23:43;6.00;99.90
9383;DHT22;4731;49.708;10.816;2023-02-01T08:26:11;6.00;99.90
9383;DHT22;4731;49.708;10.816;2023-02-01T08:28:39;8.20;99.90
9383;DHT22;4731;49.708;10.816;2023-02-01T08:31:08;6.60;99.90
9383;DHT22;4731;49.708;10.816;2023-02-01T08:33:35;10.80;99.90
9383;DHT22;4731;49.708;10.816;2023-02-01T08:36:04;9.30;99.90
9383;DHT22;4731;49.708;10.816;2023-02-01T08:38:32;8.30;99.90
9383;DHT22;4731;49.708;10.816;2023-02-01T08:41:05;8.30;99.90
9383;DHT22;4731;49.708;10.816;2023-02-01T08:43:32;7.90;99.90
9383;DHT22;4731;49.708;10.816;2023-02-01T08:46:01;7.30;99.90
9383;DHT22;4731;49.708;10.816;2023-02-01T08:48:28;6.50;99.90
9383;DHT22;4731;49.708;10.816;2023-02-01T08:50:56;9.70;99.90
9383;DHT22;4731;49.708;10.816;2023-02-01T08:53:24;5.40;99.90
9383;DHT22;4731;49.708;10.816;2023-02-01T08:55:52;6.00;99.90
9383;DHT22;4731;49.708;10.816;2023-02-01T09:15:36;9.70;99.90
9383;DHT22;4731;49.708;10.816;2023-02-01T09:18:03;7.20;99.90
9383;DHT22;4731;49.708;10.816;2023-02-01T09:20:30;7.10;99.90
9383;DHT22;4731;49.708;10.816;2023-02-01T09:22:57;6.60;99.90
9383;DHT22;4731;49.708;10.816;2023-02-01T09:27:50;6.60;99.90
9383;DHT22;4731;49.708;10.816;2023-02-01T09:30:17;10.80;99.90
9383;DHT22;4731;49.708;10.816;2023-02-01T09:32:45;7.00;99.90
9383;DHT22;4731;49.708;10.816;2023-02-01T09:37:39;6.60;99.90
9383;DHT22;4731;49.708;10.816;2023-02-01T09:40:08;6.70;99.90
9383;DHT22;4731;49.708;10.816;2023-02-01T09:42:55;7.70;99.90
9383;DHT22;4731;49.708;10.816;2023-02-01T09:45:32;9.90;99.90
9383;DHT22;4731;49.708;10.816;2023-02-01T09:48:10;10.10;99.90
9383;DHT22;4731;49.708;10.816;2023-02-01T09:50:39;8.30;99.90
9383;DHT22;4731;49.708;10.816;2023-02-01T09:53:12;7.60;99.90
9383;DHT22;4731;49.708;10.816;2023-02-01T09:55:49;7.60;99.90
9383;DHT22;4731;49.708;10.816;2023-02-01T09:58:19;8.50;99.90
9383;DHT22;4731;49.708;10.816;2023-02-01T10:00:52;6.50;99.90
9383;DHT22;4731;49.708;10.816;2023-02-01T10:03:27;6.20;99.90
9383;DHT22;4731;49.708;10.816;2023-02-01T10:06:18;6.20;99.90
9383;DHT22;4731;49.708;10.816;2023-02-01T10:12:12;6.00;99.90
9383;DHT22;4731;49.708;10.816;2023-02-01T10:14:55;6.00;99.90
9383;DHT22;4731;49.708;10.816;2023-02-01T10:17:31;6.00;99.90
9383;DHT22;4731;49.708;10.816;2023-02-01T10:20:13;6.00;99.90
9383;DHT22;4731;49.708;10.816;2023-02-01T10:22:46;5.90;99.90
9383;DHT22;4731;49.708;10.816;2023-02-01T10:25:19;5.90;99.90
9383;DHT22;4731;49.708;10.816;2023-02-01T10:27:47;6.00;99.90
9383;DHT22;4731;49.708;10.816;2023-02-01T10:30:19;5.80;99.90
9383;DHT22;4731;49.708;10.816;2023-02-01T10:32:48;6.40;99.90
9383;DHT22;4731;49.708;10.816;2023-02-01T10:35:22;6.60;99.90
9383;DHT22;4731;49.708;10.816;2023-02-01T10:37:50;6.60;99.90
9383;DHT22;4731;49.708;10.816;2023-02-01T10:40:20;6.50;99.90
9383;DHT22;4731;49.708;10.816;2023-02-01T10:42:48;6.50;99.90
9383;DHT22;4731;49.708;10.816;2023-02-01T10:45:19;6.40;99.90
9383;DHT22;4731;49.708;10.816;2023-02-01T10:47:48;6.30;99.90
9383;DHT22;4731;49.708;10.816;2023-02-01T10:50:26;6.30;99.90
9383;DHT22;4731;49.708;10.816;2023-02-01T10:53:01;6.20;99.90
9383;DHT22;4731;49.708;10.816;2023-02-01T10:55:41;6.30;99.90
9383;DHT22;4731;49.708;10.816;2023-02-01T10:58:15;6.30;99.90
9383;DHT22;4731;49.708;10.816;2023-02-01T11:00:48;6.30;99.90
9383;DHT22;4731;49.708;10.816;2023-02-01T11:03:37;6.50;99.90
9383;DHT22;4731;49.708;10.816;2023-02-01T11:06:14;6.90;99.90
9383;DHT22;4731;49.708;10.816;2023-02-01T11:08:45;6.80;99.90
9383;DHT22;4731;49.708;10.816;2023-02-01T11:13:40;6.80;99.90
9383;DHT22;4731;49.708;10.816;2023-02-01T11:16:12;9.00;99.90
9383;DHT22;4731;49.708;10.816;2023-02-01T11:18:40;6.80;99.90
9383;DHT22;4731;49.708;10.816;2023-02-01T11:21:11;6.60;99.90
9383;DHT22;4731;49.708;10.816;2023-02-01T11:23:43;6.50;99.90
9383;DHT22;4731;49.708;10.816;2023-02-01T11:26:13;6.50;99.90
9383;DHT22;4731;49.708;10.816;2023-02-01T11:31:13;6.50;99.90
9383;DHT22;4731;49.708;10.816;2023-02-01T11:33:48;6.50;99.90
9383;DHT22;4731;49.708;10.816;2023-02-01T11:36:20;6.50;99.90
9383;DHT22;4731;49.708;10.816;2023-02-01T11:38:52;6.50;99.90
9383;DHT22;4731;49.708;10.816;2023-02-01T11:41:25;6.50;99.90
9383;DHT22;4731;49.708;10.816;2023-02-01T11:43:56;6.50;99.90
9383;DHT22;4731;49.708;10.816;2023-02-01T11:46:28;6.40;99.90
9383;DHT22;4731;49.708;10.816;2023-02-01T11:51:34;6.10;99.90
9383;DHT22;4731;49.708;10.816;2023-02-01T11:54:18;10.00;99.90
9383;DHT22;4731;49.708;10.816;2023-02-01T11:56:57;6.00;99.90
9383;DHT22;4731;49.708;10.816;2023-02-01T11:59:37;6.10;99.90
9383;DHT22;4731;49.708;10.816;2023-02-01T12:02:23;6.10;99.90
9383;DHT22;4731;49.708;10.816;2023-02-01T12:05:23;6.10;99.90
9383;DHT22;4731;49.708;10.816;2023-02-01T12:08:15;6.90;99.90
9383;DHT22;4731;49.708;10.816;2023-02-01T12:10:58;6.10;99.90
9383;DHT22;4731;49.708;10.816;2023-02-01T12:13:38;6.20;99.90
9383;DHT22;4731;49.708;10.816;2023-02-01T12:16:21;6.10;99.90
9383;DHT22;4731;49.708;10.816;2023-02-01T12:19:02;6.10;99.90
9383;DHT22;4731;49.708;10.816;2023-02-01T12:21:41;6.10;99.90
9383;DHT22;4731;49.708;10.816;2023-02-01T12:24:23;6.10;99.90
9383;DHT22;4731;49.708;10.816;2023-02-01T12:27:00;6.10;99.90
9383;DHT22;4731;49.708;10.816;2023-02-01T12:29:46;6.20;99.90
9383;DHT22;4731;49.708;10.816;2023-02-01T12:32:25;6.20;99.90
9383;DHT22;4731;49.708;10.816;2023-02-01T12:35:13;6.30;99.90
9383;DHT22;4731;49.708;10.816;2023-02-01T12:37:54;6.30;99.90
9383;DHT22;4731;49.708;10.816;2023-02-01T12:40:37;6.20;99.90
9383;DHT22;4731;49.708;10.816;2023-02-01T12:43:12;6.20;99.90
9383;DHT22;4731;49.708;10.816;2023-02-01T12:45:51;4.30;99.90
9383;DHT22;4731;49.708;10.816;2023-02-01T12:48:30;6.20;99.90
9383;DHT22;4731;49.708;10.816;2023-02-01T12:51:01;6.20;99.90
9383;DHT22;4731;49.708;10.816;2023-02-01T12:53:37;6.30;99.90
9383;DHT22;4731;49.708;10.816;2023-02-01T12:56:14;6.30;99.90
9383;DHT22;4731;49.708;10.816;2023-02-01T12:58:45;6.30;99.90
9383;DHT22;4731;49.708;10.816;2023-02-01T13:01:20;6.30;99.90
9383;DHT22;4731;49.708;10.816;2023-02-01T13:03:55;6.90;99.90
9383;DHT22;4731;49.708;10.816;2023-02-01T13:06:28;6.20;99.90
9383;DHT22;4731;49.708;10.816;2023-02-01T13:09:01;6.20;99.90
9383;DHT22;4731;49.708;10.816;2023-02-01T13:11:34;6.20;99.90
9383;DHT22;4731;49.708;10.816;2023-02-01T13:14:14;6.20;99.90
9383;DHT22;4731;49.708;10.816;2023-02-01T13:16:43;6.20;99.90
9383;DHT22;4731;49.708;10.816;2023-02-01T13:19:17;6.10;99.90
9383;DHT22;4731;49.708;10.816;2023-02-01T13:21:55;6.00;99.90
9383;DHT22;4731;49.708;10.816;2023-02-01T13:24:31;5.90;99.90
9383;DHT22;4731;49.708;10.816;2023-02-01T13:27:01;5.90;99.90
9383;DHT22;4731;49.708;10.816;2023-02-01T13:29:31;5.90;99.90
9383;DHT22;4731;49.708;10.816;2023-02-01T13:32:16;6.00;99.90
9383;DHT22;4731;49.708;10.816;2023-02-01T13:35:17;5.90;99.90
9383;DHT22;4731;49.708;10.816;2023-02-01T13:38:01;7.40;99.90
9383;DHT22;4731;49.708;10.816;2023-02-01T13:40:41;6.00;99.90
9383;DHT22;4731;49.708;10.816;2023-02-01T13:43:15;6.00;99.90
9383;DHT22;4731;49.708;10.816;2023-02-01T13:45:47;6.10;99.90
9383;DHT22;4731;49.708;10.816;2023-02-01T13:48:21;6.10;99.90
9383;DHT22;4731;49.708;10.816;2023-02-01T13:50:51;6.10;99.90
9383;DHT22;4731;49.708;10.816;2023-02-01T13:53:25;6.00;99.90
9383;DHT22;4731;49.708;10.816;2023-02-01T13:55:57;6.00;99.90
9383;DHT22;4731;49.708;10.816;2023-02-01T13:58:32;6.00;99.90
9383;DHT22;4731;49.708;10.816;2023-02-01T14:01:35;6.00;99.90
9383;DHT22;4731;49.708;10.816;2023-02-01T14:04:05;6.10;99.90
9383;DHT22;4731;49.708;10.816;2023-02-01T14:06:43;6.00;99.90
9383;DHT22;4731;49.708;10.816;2023-02-01T14:09:19;6.00;99.90
9383;DHT22;4731;49.708;10.816;2023-02-01T14:11:56;6.00;99.90
9383;DHT22;4731;49.708;10.816;2023-02-01T14:14:49;6.00;99.90
9383;DHT22;4731;49.708;10.816;2023-02-01T14:17:34;5.90;99.90
9383;DHT22;4731;49.708;10.816;2023-02-01T14:23:26;5.80;99.90
9383;DHT22;4731;49.708;10.816;2023-02-01T14:26:04;6.40;99.90
9383;DHT22;4731;49.708;10.816;2023-02-01T14:28:34;5.60;99.90
9383;DHT22;4731;49.708;10.816;2023-02-01T14:31:22;5.70;99.90
9383;DHT22;4731;49.708;10.816;2023-02-01T14:33:56;5.60;99.90
9383;DHT22;4731;49.708;10.816;2023-02-01T14:38:52;5.60;99.90
9383;DHT22;4731;49.708;10.816;2023-02-01T14:41:30;5.60;99.90
9383;DHT22;4731;49.708;10.816;2023-02-01T14:44:31;5.60;99.90
9383;DHT22;4731;49.708;10.816;2023-02-01T14:47:33;5.60;99.90
9383;DHT22;4731;49.708;10.816;2023-02-01T14:50:20;7.40;99.90
9383;DHT22;4731;49.708;10.816;2023-02-01T14:52:51;5.60;99.90
9383;DHT22;4731;49.708;10.816;2023-02-01T14:55:27;5.60;99.90
9383;DHT22;4731;49.708;10.816;2023-02-01T14:57:57;5.60;99.90
9383;DHT22;4731;49.708;10.816;2023-02-01T15:00:28;5.60;99.90
9383;DHT22;4731;49.708;10.816;2023-02-01T15:03:19;5.60;99.90
9383;DHT22;4731;49.708;10.816;2023-02-01T15:05:55;7.50;99.90
9383;DHT22;4731;49.708;10.816;2023-02-01T15:08:26;5.60;99.90
9383;DHT22;4731;49.708;10.816;2023-02-01T15:10:55;5.50;99.90
9383;DHT22;4731;49.708;10.816;2023-02-01T15:13:25;5.50;99.90
9383;DHT22;4731;49.708;10.816;2023-02-01T15:16:09;5.50;99.90
9383;DHT22;4731;49.708;10.816;2023-02-01T15:21:14;5.40;99.90
9383;DHT22;4731;49.708;10.816;2023-02-01T15:23:41;5.40;99.90
9383;DHT22;4731;49.708;10.816;2023-02-01T15:28:35;5.50;99.90
9383;DHT22;4731;49.708;10.816;2023-02-01T15:31:03;7.90;99.90
9383;DHT22;4731;49.708;10.816;2023-02-01T15:33:31;5.40;99.90
9383;DHT22;4731;49.708;10.816;2023-02-01T15:38:39;5.40;99.90
9383;DHT22;4731;49.708;10.816;2023-02-01T15:41:12;5.30;99.90
9383;DHT22;4731;49.708;10.816;2023-02-01T15:43:42;6.90;99.90
9383;DHT22;4731;49.708;10.816;2023-02-01T15:46:12;5.30;99.90
9383;DHT22;4731;49.708;10.816;2023-02-01T15:48:43;5.20;99.90
9383;DHT22;4731;49.708;10.816;2023-02-01T15:51:17;5.20;99.90
9383;DHT22;4731;49.708;10.816;2023-02-01T15:53:47;5.20;99.90
9383;DHT22;4731;49.708;10.816;2023-02-01T15:56:15;5.20;99.90
9383;DHT22;4731;49.708;10.816;2023-02-01T15:58:45;5.20;99.90
9383;DHT22;4731;49.708;10.816;2023-02-01T16:01:15;5.20;99.90
9383;DHT22;4731;49.708;10.816;2023-02-01T16:03:43;5.30;99.90
9383;DHT22;4731;49.708;10.816;2023-02-01T16:06:25;5.30;99.90
9383;DHT22;4731;49.708;10.816;2023-02-01T16:09:01;5.30;99.90
9383;DHT22;4731;49.708;10.816;2023-02-01T16:11:30;5.90;99.90
9383;DHT22;4731;49.708;10.816;2023-02-01T16:13:57;5.30;99.90
9383;DHT22;4731;49.708;10.816;2023-02-01T16:18:51;5.20;99.90
9383;DHT22;4731;49.708;10.816;2023-02-01T16:26:17;5.30;99.90
9383;DHT22;4731;49.708;10.816;2023-02-01T16:28:44;5.20;99.90
9383;DHT22;4731;49.708;10.816;2023-02-01T16:33:46;5.20;99.90
9383;DHT22;4731;49.708;10.816;2023-02-01T16:41:12;5.30;99.90
9383;DHT22;4731;49.708;10.816;2023-02-01T16:46:12;5.30;99.90
9383;DHT22;4731;49.708;10.816;2023-02-01T16:48:41;5.20;99.90
9383;DHT22;4731;49.708;10.816;2023-02-01T16:51:11;5.30;99.90
9383;DHT22;4731;49.708;10.816;2023-02-01T16:53:39;5.30;99.90
9383;DHT22;4731;49.708;10.816;2023-02-01T16:56:12;5.30;99.90
9383;DHT22;4731;49.708;10.816;2023-02-01T17:03:35;5.30;99.90
9383;DHT22;4731;49.708;10.816;2023-02-01T17:06:03;5.30;99.90
9383;DHT22;4731;49.708;10.816;2023-02-01T17:08:32;5.30;99.90
9383;DHT22;4731;49.708;10.816;2023-02-01T17:15:57;5.30;99.90
9383;DHT22;4731;49.708;10.816;2023-02-01T17:18:27;7.00;99.90
9383;DHT22;4731;49.708;10.816;2023-02-01T17:20:56;5.30;99.90
9383;DHT22;4731;49.708;10.816;2023-02-01T17:33:21;5.10;99.90
9383;DHT22;4731;49.708;10.816;2023-02-01T17:35:49;5.10;99.90
9383;DHT22;4731;49.708;10.816;2023-02-01T17:38:16;5.00;99.90
9383;DHT22;4731;49.708;10.816;2023-02-01T17:40:43;5.00;99.90
9383;DHT22;4731;49.708;10.816;2023-02-01T17:43:14;5.00;99.90
9383;DHT22;4731;49.708;10.816;2023-02-01T17:45:44;4.90;99.90
9383;DHT22;4731;49.708;10.816;2023-02-01T17:48:17;4.80;99.90
9383;DHT22;4731;49.708;10.816;2023-02-01T17:50:46;4.80;99.90
9383;DHT22;4731;49.708;10.816;2023-02-01T17:53:13;4.80;99.90
9383;DHT22;4731;49.708;10.816;2023-02-01T17:55:42;4.70;99.90
9383;DHT22;4731;49.708;10.816;2023-02-01T17:58:11;4.70;99.90
9383;DHT22;4731;49.708;10.816;2023-02-01T18:03:05;4.70;99.90
9383;DHT22;4731;49.708;10.816;2023-02-01T18:05:38;4.80;99.90
9383;DHT22;4731;49.708;10.816;2023-02-01T18:08:05;4.80;99.90
9383;DHT22;4731;49.708;10.816;2023-02-01T18:10:33;4.80;99.90
9383;DHT22;4731;49.708;10.816;2023-02-01T18:15:29;4.80;99.90
9383;DHT22;4731;49.708;10.816;2023-02-01T18:17:56;5.50;99.90